Terminal Aerodrome Forecast
Issued by NWS

Home | Current Version | Previous Version | Text Only | Print | Product List | Glossary On
Versions: 1 2 3 4 5 6 7 8 9 10 11 12 13 14
784
FTUS44 KBMX 281748 CCA
TAFTOI
TAF COR
KTOI 281748Z 2818/2918 10012KT P6SM SCT050
     FM290100 07003KT P6SM SCT250=

USA.gov is the U.S. government's official web portal to all federal, state and local government web resources and services.